Time;durP1;ratioP1;P1;durP2;ratioP2;P2;SDS_P1;SDS_P2;PMS_P1;PMS_P2;Temp;Humidity;BMP_temperature;BMP_pressure;BME280_temperature;BME280_humidity;BME280_pressure;Samples;Min_cycle;Max_cycle;Signal;HPM_P1;HPM_P2
2023/06/25 00:01:03;;;;;;;5.72;4.78;;;25.40;74.60;;;;;;5035965;28;20022;-85
2023/06/25 00:03:28;;;;;;;4.32;3.92;;;25.40;74.70;;;;;;5035647;28;20036;-85
2023/06/25 00:05:54;;;;;;;6.57;5.35;;;25.40;74.60;;;;;;5034468;28;20046;-86
2023/06/25 00:08:20;;;;;;;5.25;3.53;;;25.40;74.80;;;;;;5034991;28;20057;-85
2023/06/25 00:10:45;;;;;;;4.35;3.72;;;25.40;74.90;;;;;;5018109;28;20064;-85
2023/06/25 00:13:11;;;;;;;4.70;3.50;;;25.40;74.50;;;;;;5035591;28;20040;-86
2023/06/25 00:15:36;;;;;;;8.57;6.10;;;25.40;74.30;;;;;;5017988;28;20493;-86
2023/06/25 00:18:02;;;;;;;5.13;4.63;;;25.40;74.90;;;;;;5036381;28;20034;-85
2023/06/25 00:20:28;;;;;;;4.72;4.25;;;25.30;75.40;;;;;;5033978;28;20030;-87
2023/06/25 00:22:53;;;;;;;3.72;3.42;;;25.30;75.40;;;;;;5035552;28;20032;-86
2023/06/25 00:25:19;;;;;;;5.25;4.30;;;25.20;75.00;;;;;;5035928;28;20060;-86
2023/06/25 00:27:46;;;;;;;5.40;4.88;;;25.30;74.80;;;;;;5035287;28;20030;-86
2023/06/25 00:30:13;;;;;;;5.70;4.38;;;25.30;75.00;;;;;;5035277;28;20091;-85
2023/06/25 00:32:39;;;;;;;6.75;5.90;;;25.30;74.90;;;;;;5018196;28;20033;-87
2023/06/25 00:35:06;;;;;;;4.30;3.90;;;25.30;75.30;;;;;;5033638;28;20042;-86
2023/06/25 00:37:36;;;;;;;3.58;3.28;;;25.20;75.00;;;;;;5035103;28;20033;-86
2023/06/25 00:40:03;;;;;;;4.43;3.78;;;25.30;74.80;;;;;;5035188;28;20469;-85
2023/06/25 00:42:41;;;;;;;3.53;3.22;;;25.30;74.60;;;;;;5035153;28;20060;-85
2023/06/25 00:45:12;;;;;;;4.57;3.83;;;25.40;74.50;;;;;;5034278;28;20042;-86
2023/06/25 00:47:41;;;;;;;5.32;3.67;;;25.40;74.30;;;;;;5034083;28;20033;-86
2023/06/25 00:50:11;;;;;;;5.00;4.18;;;25.40;74.20;;;;;;5017593;28;20025;-85
2023/06/25 00:52:37;;;;;;;5.05;3.55;;;25.40;74.30;;;;;;5033659;28;20036;-85
2023/06/25 00:55:03;;;;;;;5.32;4.25;;;25.40;74.30;;;;;;5035173;28;20042;-86
2023/06/25 00:57:29;;;;;;;4.38;3.90;;;25.40;74.20;;;;;;5033337;28;20440;-84
2023/06/25 00:59:56;;;;;;;6.13;4.63;;;25.40;74.10;;;;;;5033254;28;20026;-84
2023/06/25 01:02:43;;;;;;;4.68;4.05;;;25.40;74.30;;;;;;5033619;28;20029;-85
2023/06/25 01:05:27;;;;;;;5.05;4.35;;;25.40;74.40;;;;;;5034151;28;20033;-85
2023/06/25 01:07:57;;;;;;;6.10;5.10;;;25.40;74.50;;;;;;5033678;28;20465;-85
2023/06/25 01:10:23;;;;;;;6.30;5.18;;;25.40;74.70;;;;;;5034013;28;20033;-85
2023/06/25 01:12:49;;;;;;;5.82;4.95;;;25.40;75.20;;;;;;5034425;28;20025;-85
2023/06/25 01:15:15;;;;;;;7.60;5.03;;;25.30;75.30;;;;;;5033948;28;20041;-85
2023/06/25 01:17:41;;;;;;;5.63;4.38;;;25.30;75.30;;;;;;5033774;28;20513;-85
2023/06/25 01:20:11;;;;;;;5.78;5.18;;;25.30;75.20;;;;;;5033402;28;20033;-85
2023/06/25 01:22:38;;;;;;;8.68;5.85;;;25.20;75.70;;;;;;5033819;28;20194;-84
2023/06/25 01:25:04;;;;;;;7.05;4.95;;;25.10;76.30;;;;;;5033767;28;20467;-85
2023/06/25 01:27:33;;;;;;;3.70;3.35;;;25.10;76.40;;;;;;5033440;28;20037;-84
2023/06/25 01:29:59;;;;;;;5.82;4.95;;;25.20;76.20;;;;;;5034312;28;20021;-85
2023/06/25 01:32:25;;;;;;;4.20;3.80;;;25.20;76.30;;;;;;5033020;28;20037;-84
2023/06/25 01:34:50;;;;;;;4.28;3.88;;;25.10;76.00;;;;;;5032970;28;20037;-84
2023/06/25 01:37:17;;;;;;;6.88;6.05;;;25.10;76.00;;;;;;5034145;28;20026;-85
2023/06/25 01:39:49;;;;;;;7.47;5.53;;;25.10;76.50;;;;;;5016452;28;20033;-84
2023/06/25 01:42:15;;;;;;;8.68;5.88;;;25.10;76.90;;;;;;5034345;28;20030;-85
2023/06/25 01:44:41;;;;;;;9.15;5.85;;;25.00;77.20;;;;;;5032167;28;20049;-85
2023/06/25 01:47:06;;;;;;;9.88;5.75;;;24.90;77.60;;;;;;5032661;28;20057;-84
2023/06/25 01:49:32;;;;;;;6.60;4.68;;;24.90;77.50;;;;;;5034176;28;20105;-85
2023/06/25 01:51:58;;;;;;;7.35;6.35;;;24.90;77.50;;;;;;5033998;28;20437;-85
2023/06/25 01:54:23;;;;;;;9.45;7.93;;;24.90;77.70;;;;;;5033545;28;20389;-84
2023/06/25 01:56:49;;;;;;;7.10;5.63;;;24.80;79.00;;;;;;5032688;28;20026;-84
2023/06/25 01:59:15;;;;;;;7.72;6.15;;;24.70;78.80;;;;;;5032459;28;20443;-84
2023/06/25 02:01:40;;;;;;;5.50;5.00;;;24.70;78.70;;;;;;5032327;28;20029;-84
2023/06/25 02:04:06;;;;;;;5.68;5.07;;;24.70;78.40;;;;;;5034142;28;20025;-84
2023/06/25 02:06:31;;;;;;;7.75;5.60;;;24.70;78.20;;;;;;5032527;28;20072;-84
2023/06/25 02:08:57;;;;;;;7.75;6.50;;;24.70;78.00;;;;;;5033601;28;20386;-84
2023/06/25 02:11:23;;;;;;;6.93;5.55;;;24.70;78.50;;;;;;5033320;28;20404;-86
2023/06/25 02:13:48;;;;;;;6.95;4.95;;;24.60;79.00;;;;;;5033708;28;20030;-85
2023/06/25 02:16:14;;;;;;;6.35;5.72;;;24.60;78.90;;;;;;5034707;28;20030;-85
2023/06/25 02:18:40;;;;;;;6.28;5.68;;;24.50;79.50;;;;;;5033320;28;20370;-86
2023/06/25 02:21:06;;;;;;;7.88;6.93;;;24.50;79.50;;;;;;5033566;28;20056;-86
2023/06/25 02:23:31;;;;;;;8.63;7.50;;;24.50;79.60;;;;;;5033946;28;20080;-86
2023/06/25 02:25:57;;;;;;;8.23;6.90;;;24.30;80.50;;;;;;5015930;28;20045;-87
2023/06/25 02:28:23;;;;;;;7.30;5.57;;;24.30;80.30;;;;;;5033676;28;20061;-86
2023/06/25 02:30:48;;;;;;;7.13;6.22;;;24.30;80.10;;;;;;5033099;28;20034;-86
2023/06/25 02:33:14;;;;;;;9.05;5.20;;;24.40;80.00;;;;;;5036045;28;20079;-85
2023/06/25 02:35:41;;;;;;;5.93;5.38;;;24.40;79.80;;;;;;5037847;28;20082;-86
2023/06/25 02:38:07;;;;;;;7.03;4.80;;;24.40;79.40;;;;;;5036228;28;20029;-85
2023/06/25 02:40:33;;;;;;;8.27;7.22;;;24.40;79.40;;;;;;5036219;28;20124;-86
2023/06/25 02:42:58;;;;;;;5.45;4.95;;;24.40;79.70;;;;;;5019303;28;20450;-85
2023/06/25 02:45:25;;;;;;;7.30;6.18;;;24.40;79.50;;;;;;5035931;28;20405;-86
2023/06/25 02:47:51;;;;;;;9.05;6.10;;;24.40;79.50;;;;;;5019889;28;20042;-85
2023/06/25 02:50:16;;;;;;;6.97;6.20;;;24.40;79.40;;;;;;5038669;28;20080;-85
2023/06/25 02:52:43;;;;;;;7.45;6.35;;;24.40;79.60;;;;;;5037778;28;20037;-85
2023/06/25 02:55:09;;;;;;;8.50;6.82;;;24.40;79.40;;;;;;5038733;28;20034;-85
2023/06/25 02:57:34;;;;;;;4.90;4.43;;;24.40;79.40;;;;;;5040063;28;20029;-85
2023/06/25 03:00:01;;;;;;;6.30;5.70;;;24.40;79.30;;;;;;5042393;28;20034;-85
2023/06/25 03:02:26;;;;;;;6.95;6.18;;;24.40;79.10;;;;;;5042406;28;20030;-85
2023/06/25 03:04:52;;;;;;;7.57;6.78;;;24.40;79.10;;;;;;5042024;28;20501;-85
2023/06/25 03:07:18;;;;;;;6.05;5.45;;;24.40;79.40;;;;;;5039956;28;20087;-85
2023/06/25 03:09:44;;;;;;;6.30;5.68;;;24.30;79.50;;;;;;5039276;28;20030;-84
2023/06/25 03:12:10;;;;;;;6.20;5.60;;;24.30;79.50;;;;;;5020195;28;20049;-85
2023/06/25 03:14:36;;;;;;;5.10;4.60;;;24.30;79.40;;;;;;5036623;28;20025;-84
2023/06/25 03:17:03;;;;;;;6.55;5.88;;;24.30;79.30;;;;;;5036790;28;20033;-85
2023/06/25 03:19:29;;;;;;;8.88;5.95;;;24.40;79.30;;;;;;5037292;28;20057;-85
2023/06/25 03:21:55;;;;;;;5.45;4.93;;;24.30;79.50;;;;;;5036946;28;20377;-85
2023/06/25 03:24:21;;;;;;;5.93;5.00;;;24.30;79.30;;;;;;5036291;28;20052;-85
2023/06/25 03:26:46;;;;;;;5.60;4.90;;;24.40;79.30;;;;;;5036758;28;20103;-85
2023/06/25 03:29:12;;;;;;;5.53;4.95;;;24.30;79.00;;;;;;5019222;28;20404;-85
2023/06/25 03:31:37;;;;;;;6.85;5.10;;;24.40;78.90;;;;;;5037002;28;20417;-84
2023/06/25 03:34:03;;;;;;;6.07;5.47;;;24.40;78.90;;;;;;5036016;28;20083;-85
2023/06/25 03:36:29;;;;;;;6.30;5.70;;;24.40;78.90;;;;;;5019436;28;20033;-84
2023/06/25 03:38:55;;;;;;;8.27;5.90;;;24.40;79.00;;;;;;5035841;28;20571;-85
2023/06/25 03:41:20;;;;;;;5.85;5.25;;;24.40;79.00;;;;;;5035983;28;20040;-84
2023/06/25 03:43:46;;;;;;;6.82;6.13;;;24.40;78.80;;;;;;5018282;28;20061;-84
2023/06/25 03:46:12;;;;;;;7.65;6.95;;;24.40;79.50;;;;;;5019854;28;20459;-84
2023/06/25 03:48:40;;;;;;;6.20;5.60;;;24.40;79.30;;;;;;5035470;28;20092;-84
2023/06/25 03:51:05;;;;;;;8.05;6.70;;;24.30;79.30;;;;;;5034480;28;20091;-85
2023/06/25 03:53:31;;;;;;;7.55;6.32;;;24.20;79.30;;;;;;5035401;28;20029;-85
2023/06/25 03:55:57;;;;;;;6.97;6.28;;;24.20;79.30;;;;;;5034407;28;20029;-85
2023/06/25 03:58:22;;;;;;;7.82;5.93;;;24.20;79.30;;;;;;5035463;28;20117;-85
2023/06/25 04:00:48;;;;;;;6.97;6.28;;;24.20;79.30;;;;;;5018077;28;20025;-84
2023/06/25 04:03:14;;;;;;;5.78;4.97;;;24.20;79.20;;;;;;5036720;28;20029;-84
2023/06/25 04:05:39;;;;;;;7.32;6.10;;;24.20;79.30;;;;;;5035885;28;20042;-84
2023/06/25 04:08:05;;;;;;;7.03;4.88;;;24.20;79.30;;;;;;5038542;28;20033;-84
2023/06/25 04:10:30;;;;;;;8.25;6.47;;;24.20;79.20;;;;;;5037010;28;20041;-84
2023/06/25 04:12:56;;;;;;;7.43;5.47;;;24.20;79.30;;;;;;5039177;28;20029;-84
2023/06/25 04:15:22;;;;;;;4.72;4.32;;;24.20;79.30;;;;;;5038248;28;20041;-84
2023/06/25 04:17:47;;;;;;;8.02;6.72;;;24.20;79.20;;;;;;5019084;28;20228;-84
2023/06/25 04:20:13;;;;;;;6.97;5.60;;;24.20;79.40;;;;;;5037485;28;20041;-85
2023/06/25 04:22:39;;;;;;;8.60;7.28;;;24.20;79.40;;;;;;5039321;28;20046;-84
2023/06/25 04:25:05;;;;;;;8.77;6.90;;;24.20;79.40;;;;;;5036624;28;20037;-84
2023/06/25 04:27:31;;;;;;;7.47;5.90;;;24.20;79.40;;;;;;5037936;28;20025;-84
2023/06/25 04:29:59;;;;;;;6.35;5.70;;;24.10;79.30;;;;;;5037425;28;20113;-85
2023/06/25 04:32:25;;;;;;;11.25;8.57;;;24.10;79.30;;;;;;5038221;28;20473;-84
2023/06/25 04:34:50;;;;;;;8.25;7.10;;;24.20;79.70;;;;;;5038287;28;20040;-84
2023/06/25 04:37:16;;;;;;;9.30;6.80;;;23.90;80.20;;;;;;5035235;28;20061;-85
2023/06/25 04:39:41;;;;;;;6.43;5.45;;;23.90;80.30;;;;;;5036372;28;20461;-84
2023/06/25 04:42:07;;;;;;;8.23;7.43;;;23.90;80.10;;;;;;5037022;28;20110;-85
2023/06/25 04:44:33;;;;;;;8.73;7.07;;;23.90;80.10;;;;;;5037565;28;20057;-85
2023/06/25 04:46:58;;;;;;;10.02;8.65;;;23.90;80.10;;;;;;5033675;28;20064;-84
2023/06/25 04:49:24;;;;;;;9.07;7.13;;;24.00;80.10;;;;;;5018049;28;20064;-84
2023/06/25 04:51:50;;;;;;;8.73;6.95;;;23.80;80.40;;;;;;5035869;28;20083;-85
2023/06/25 04:54:15;;;;;;;8.10;7.10;;;23.80;80.80;;;;;;5037035;28;20037;-83
2023/06/25 04:56:41;;;;;;;9.80;7.78;;;23.80;80.50;;;;;;5017788;28;20029;-84
2023/06/25 04:59:06;;;;;;;9.07;7.40;;;23.80;80.50;;;;;;5019884;28;20095;-84
2023/06/25 05:01:32;;;;;;;9.25;7.70;;;23.80;80.50;;;;;;5035772;28;20030;-84
2023/06/25 05:03:59;;;;;;;13.88;8.35;;;23.80;80.50;;;;;;5036929;28;20029;-84
2023/06/25 05:06:25;;;;;;;8.43;6.15;;;23.80;80.50;;;;;;5033685;28;20025;-84
2023/06/25 05:08:51;;;;;;;12.20;7.15;;;23.80;80.30;;;;;;5034796;28;20495;-83
2023/06/25 05:11:17;;;;;;;9.32;7.22;;;23.80;80.10;;;;;;5016677;28;20057;-84
2023/06/25 05:13:42;;;;;;;10.88;8.95;;;23.80;80.10;;;;;;5037122;28;20033;-83
2023/06/25 05:16:08;;;;;;;8.82;7.65;;;23.80;79.90;;;;;;5034394;28;20033;-84
2023/06/25 05:18:33;;;;;;;8.52;7.63;;;23.80;79.90;;;;;;5018921;28;20496;-84
2023/06/25 05:20:59;;;;;;;7.55;6.38;;;23.80;79.90;;;;;;5034312;28;20025;-84
2023/06/25 05:23:25;;;;;;;9.52;8.05;;;23.70;79.90;;;;;;5033865;28;20523;-84
2023/06/25 05:25:51;;;;;;;8.10;6.40;;;23.70;80.40;;;;;;5017989;28;20034;-85
2023/06/25 05:28:17;;;;;;;11.00;7.85;;;23.60;80.40;;;;;;5018281;28;20441;-84
2023/06/25 05:30:43;;;;;;;9.65;7.97;;;23.70;80.20;;;;;;5035210;28;20036;-85
2023/06/25 05:33:08;;;;;;;9.38;7.82;;;23.70;79.90;;;;;;5032662;28;20060;-85
2023/06/25 05:35:34;;;;;;;8.13;6.28;;;23.70;80.00;;;;;;5032734;28;20048;-85
2023/06/25 05:38:00;;;;;;;8.00;6.03;;;23.70;80.00;;;;;;5035174;28;20445;-85
2023/06/25 05:40:26;;;;;;;9.15;7.20;;;23.80;80.10;;;;;;5032844;28;20524;-85
2023/06/25 05:42:54;;;;;;;7.43;6.60;;;23.80;80.00;;;;;;5016107;28;20413;-85
2023/06/25 05:45:20;;;;;;;5.38;4.50;;;23.90;79.90;;;;;;5034575;28;20041;-84
2023/06/25 05:47:45;;;;;;;5.30;4.80;;;23.90;79.70;;;;;;5033586;28;20033;-85
2023/06/25 05:50:11;;;;;;;7.47;6.22;;;24.00;79.60;;;;;;5034028;28;20053;-85
2023/06/25 05:52:37;;;;;;;9.77;7.63;;;24.10;79.20;;;;;;5032606;28;20065;-85
2023/06/25 05:55:03;;;;;;;7.38;6.68;;;24.10;78.50;;;;;;5034344;28;20033;-85
2023/06/25 05:57:28;;;;;;;10.32;8.10;;;24.20;78.20;;;;;;5035578;28;20445;-85
2023/06/25 05:59:54;;;;;;;8.65;7.30;;;24.20;77.90;;;;;;5034879;28;20477;-85
2023/06/25 06:02:19;;;;;;;9.73;8.05;;;24.20;77.60;;;;;;5034154;28;20382;-85
2023/06/25 06:04:45;;;;;;;7.75;6.20;;;24.20;77.10;;;;;;5032500;28;20091;-84
2023/06/25 06:07:11;;;;;;;8.02;6.45;;;24.30;77.30;;;;;;5018033;28;20030;-83
2023/06/25 06:09:36;;;;;;;10.40;6.82;;;24.40;77.10;;;;;;5037425;28;20567;-85
2023/06/25 06:12:02;;;;;;;7.50;6.40;;;24.40;77.00;;;;;;5036395;28;20044;-85
2023/06/25 06:14:28;;;;;;;10.43;7.65;;;24.50;76.20;;;;;;5020615;28;20029;-85
2023/06/25 06:16:53;;;;;;;4.80;4.10;;;24.60;75.60;;;;;;5037523;28;20038;-85
2023/06/25 06:19:19;;;;;;;4.70;4.10;;;24.70;75.70;;;;;;5020196;28;20488;-85
2023/06/25 06:21:45;;;;;;;5.32;4.68;;;24.80;75.60;;;;;;5036149;28;20120;-85
2023/06/25 06:24:10;;;;;;;12.43;8.15;;;25.00;75.60;;;;;;5037478;28;20040;-85
2023/06/25 06:26:36;;;;;;;9.55;7.20;;;25.00;74.60;;;;;;5036385;28;20041;-85
2023/06/25 06:29:03;;;;;;;9.25;7.45;;;25.00;74.40;;;;;;5020165;28;20491;-85
2023/06/25 06:31:30;;;;;;;8.85;7.25;;;25.00;74.40;;;;;;5020403;28;20116;-85
2023/06/25 06:33:56;;;;;;;9.85;8.20;;;25.00;73.90;;;;;;5035756;28;20030;-85
2023/06/25 06:36:21;;;;;;;9.38;6.95;;;25.00;74.20;;;;;;5019544;28;20088;-85
2023/06/25 06:38:47;;;;;;;9.10;8.00;;;25.10;74.50;;;;;;5035742;28;20033;-84
2023/06/25 06:41:13;;;;;;;6.88;6.18;;;25.20;74.10;;;;;;5036068;28;20040;-85
2023/06/25 06:43:39;;;;;;;6.45;5.55;;;25.30;74.00;;;;;;5019738;28;20096;-85
2023/06/25 06:46:04;;;;;;;7.35;6.10;;;25.40;73.70;;;;;;5036687;28;20041;-85
2023/06/25 06:48:30;;;;;;;7.03;5.30;;;25.60;73.70;;;;;;5035790;28;20381;-85
2023/06/25 06:50:56;;;;;;;10.60;7.55;;;25.70;74.10;;;;;;5018863;28;20409;-85
2023/06/25 06:53:21;;;;;;;8.02;7.22;;;25.80;74.00;;;;;;5035834;28;20029;-86
2023/06/25 06:55:47;;;;;;;9.15;7.25;;;25.80;74.50;;;;;;5036791;28;20029;-86
2023/06/25 06:58:13;;;;;;;9.40;7.85;;;25.80;74.60;;;;;;5035388;28;20035;-85
2023/06/25 07:00:38;;;;;;;9.77;7.55;;;25.80;74.00;;;;;;5035610;28;20469;-86
2023/06/25 07:03:04;;;;;;;9.10;7.88;;;25.80;73.70;;;;;;5036380;28;20068;-86
2023/06/25 07:05:29;;;;;;;8.77;7.35;;;25.80;73.50;;;;;;5035250;28;20065;-86
2023/06/25 07:07:55;;;;;;;12.43;8.20;;;25.90;74.70;;;;;;5035367;28;20030;-85
2023/06/25 07:10:21;;;;;;;10.07;7.03;;;25.90;73.40;;;;;;5019132;28;20025;-85
2023/06/25 07:12:46;;;;;;;10.18;8.05;;;25.90;73.50;;;;;;5035333;28;20030;-85
2023/06/25 07:15:12;;;;;;;7.05;5.95;;;25.90;75.20;;;;;;5036403;28;20069;-86
2023/06/25 07:17:38;;;;;;;10.88;7.80;;;26.00;75.30;;;;;;5035603;28;20128;-86
2023/06/25 07:20:04;;;;;;;7.80;7.00;;;26.10;76.40;;;;;;5036143;28;20425;-85
2023/06/25 07:22:29;;;;;;;9.65;6.82;;;26.10;76.50;;;;;;5018589;28;20037;-84
2023/06/25 07:24:55;;;;;;;8.27;6.63;;;26.10;75.40;;;;;;5018374;28;20040;-86
2023/06/25 07:27:20;;;;;;;5.55;5.05;;;26.20;74.80;;;;;;5036285;28;20061;-86
2023/06/25 07:29:46;;;;;;;9.60;7.20;;;26.20;73.70;;;;;;5036527;28;20045;-84
2023/06/25 07:32:12;;;;;;;9.05;7.40;;;26.40;73.60;;;;;;5035771;28;20032;-82
2023/06/25 07:34:37;;;;;;;8.50;6.30;;;26.40;72.20;;;;;;5036185;28;20029;-83
2023/06/25 07:37:03;;;;;;;8.90;6.82;;;26.40;72.00;;;;;;5018461;28;20499;-82
2023/06/25 07:39:29;;;;;;;7.40;6.30;;;26.50;72.40;;;;;;5034606;28;20025;-82
2023/06/25 07:41:57;;;;;;;7.68;6.70;;;26.60;73.20;;;;;;5035959;28;20028;-83
2023/06/25 07:44:22;;;;;;;9.70;8.13;;;26.70;73.30;;;;;;5034573;28;20049;-83
2023/06/25 07:46:48;;;;;;;8.57;7.65;;;26.70;73.90;;;;;;5018109;28;20100;-83
2023/06/25 07:49:14;;;;;;;6.57;5.65;;;26.70;73.70;;;;;;5035269;28;20116;-81
2023/06/25 07:51:43;;;;;;;9.40;6.93;;;26.80;73.30;;;;;;5036006;28;20054;-81
2023/06/25 07:54:09;;;;;;;6.40;5.70;;;26.90;72.80;;;;;;5034508;28;20116;-83
2023/06/25 07:56:34;;;;;;;7.47;6.35;;;26.80;73.00;;;;;;5035978;28;20113;-81
2023/06/25 07:59:00;;;;;;;7.63;6.28;;;26.90;73.30;;;;;;5035891;28;20065;-82
2023/06/25 08:01:26;;;;;;;6.05;5.45;;;26.90;72.80;;;;;;5017834;28;20036;-83
2023/06/25 08:03:51;;;;;;;8.93;5.80;;;26.90;72.00;;;;;;5035730;28;20108;-83
2023/06/25 08:06:17;;;;;;;7.28;5.38;;;27.00;73.50;;;;;;5034275;28;20042;-83
2023/06/25 08:08:42;;;;;;;9.82;6.28;;;27.10;73.60;;;;;;5035130;28;20037;-83
2023/06/25 08:11:08;;;;;;;8.88;6.57;;;27.10;71.20;;;;;;5035281;28;20034;-82
2023/06/25 08:13:34;;;;;;;8.20;6.70;;;27.20;70.80;;;;;;5034360;28;20026;-83
2023/06/25 08:15:59;;;;;;;8.25;6.32;;;27.20;70.00;;;;;;5034468;28;20482;-83
2023/06/25 08:18:25;;;;;;;7.88;6.60;;;27.10;70.10;;;;;;5034940;28;20474;-83
2023/06/25 08:20:50;;;;;;;6.65;4.72;;;27.20;70.30;;;;;;5034235;28;20034;-82
2023/06/25 08:23:16;;;;;;;7.57;5.40;;;27.30;69.60;;;;;;5018396;28;20037;-82
2023/06/25 08:25:42;;;;;;;7.22;4.82;;;27.50;70.10;;;;;;5035148;28;20084;-82
2023/06/25 08:28:08;;;;;;;13.10;6.30;;;27.70;70.60;;;;;;5017693;28;20036;-83
2023/06/25 08:30:33;;;;;;;7.53;5.40;;;27.70;68.80;;;;;;5033587;28;20042;-82
2023/06/25 08:32:59;;;;;;;8.18;5.20;;;27.80;68.30;;;;;;5034911;28;20469;-82
2023/06/25 08:35:24;;;;;;;6.88;5.47;;;27.80;67.60;;;;;;5017217;28;20037;-82
2023/06/25 08:37:50;;;;;;;7.45;4.70;;;27.80;65.90;;;;;;5034639;28;20499;-82
2023/06/25 08:40:18;;;;;;;6.47;5.40;;;27.80;66.50;;;;;;5033469;28;20034;-82
2023/06/25 08:42:44;;;;;;;6.78;5.20;;;27.90;67.70;;;;;;5034468;28;20084;-83
2023/06/25 08:45:10;;;;;;;5.53;4.60;;;28.00;66.90;;;;;;5033704;28;20493;-83
2023/06/25 08:47:40;;;;;;;6.18;4.95;;;28.10;66.50;;;;;;5016722;28;20061;-82
2023/06/25 08:50:09;;;;;;;11.07;5.03;;;28.30;65.80;;;;;;5033398;28;20032;-82
2023/06/25 08:52:35;;;;;;;9.02;4.80;;;28.40;66.40;;;;;;5034542;28;20477;-83
2023/06/25 08:55:01;;;;;;;6.40;5.15;;;28.40;66.60;;;;;;5034846;28;20033;-82
2023/06/25 08:57:26;;;;;;;7.20;4.03;;;28.50;66.60;;;;;;5033190;28;20079;-82
2023/06/25 08:59:52;;;;;;;6.95;5.00;;;28.50;66.00;;;;;;5017146;28;20116;-82
2023/06/25 09:02:18;;;;;;;5.65;4.13;;;28.60;64.80;;;;;;5033691;28;20064;-82
2023/06/25 09:04:46;;;;;;;8.50;4.97;;;28.60;65.30;;;;;;5034267;28;20469;-83
2023/06/25 09:07:19;;;;;;;11.10;5.03;;;28.70;65.40;;;;;;5033209;28;20030;-83
2023/06/25 09:09:51;;;;;;;7.50;4.88;;;28.80;67.00;;;;;;5034336;28;20028;-82
2023/06/25 09:12:21;;;;;;;;;;;28.90;66.50;;;;;;5033816;28;20381;-81
2023/06/25 09:14:47;;;;;;;8.20;4.70;;;29.00;68.40;;;;;;5034244;28;19905;-82
2023/06/25 09:17:19;;;;;;;8.73;5.18;;;29.10;67.00;;;;;;5032945;28;20505;-82
2023/06/25 09:19:44;;;;;;;7.05;4.50;;;29.20;65.70;;;;;;5033142;28;20116;-83
2023/06/25 09:22:10;;;;;;;10.25;5.45;;;29.20;65.10;;;;;;5033023;28;20129;-82
2023/06/25 09:24:42;;;;;;;6.63;5.05;;;29.20;65.30;;;;;;5016195;28;20136;-82
2023/06/25 09:27:10;;;;;;;7.43;5.55;;;29.30;64.70;;;;;;5034114;28;20056;-82
2023/06/25 09:29:37;;;;;;;6.90;4.82;;;29.20;65.20;;;;;;5033942;28;20033;-83
2023/06/25 09:32:07;;;;;;;10.00;5.75;;;29.20;65.00;;;;;;5033953;28;20078;-82
2023/06/25 09:34:33;;;;;;;6.35;4.90;;;29.30;65.20;;;;;;5032400;28;20025;-82
2023/06/25 09:37:02;;;;;;;6.20;4.70;;;29.50;65.60;;;;;;5033605;28;20091;-83
2023/06/25 09:39:28;;;;;;;9.02;5.35;;;29.60;65.70;;;;;;5033253;28;20051;-83
2023/06/25 09:41:54;;;;;;;6.32;5.15;;;29.60;64.90;;;;;;5033350;28;20061;-84
2023/06/25 09:44:22;;;;;;;7.05;5.28;;;29.60;64.40;;;;;;5032588;28;20045;-84
2023/06/25 09:46:52;;;;;;;6.90;4.82;;;29.60;65.50;;;;;;5032970;28;20040;-83
2023/06/25 09:49:19;;;;;;;5.30;4.13;;;29.70;64.90;;;;;;5033667;28;20053;-82
2023/06/25 09:51:51;;;;;;;4.72;4.20;;;29.80;66.10;;;;;;5033992;28;20053;-82
2023/06/25 09:54:21;;;;;;;5.60;3.90;;;29.90;64.80;;;;;;5033622;28;20025;-83
2023/06/25 09:56:48;;;;;;;6.40;4.88;;;30.10;63.70;;;;;;5033665;28;20040;-83
2023/06/25 09:59:15;;;;;;;7.47;5.03;;;30.20;63.90;;;;;;5033656;28;20025;-83
2023/06/25 10:01:41;;;;;;;4.63;4.20;;;30.30;62.90;;;;;;5032615;28;20545;-83
2023/06/25 10:04:07;;;;;;;7.32;4.80;;;30.20;62.90;;;;;;5016734;28;20068;-82
2023/06/25 10:06:34;;;;;;;7.22;4.78;;;30.30;63.30;;;;;;5032669;28;20045;-83
2023/06/25 10:09:03;;;;;;;8.93;4.82;;;30.30;63.80;;;;;;5032422;28;20117;-83
2023/06/25 10:11:28;;;;;;;4.13;3.70;;;30.40;64.30;;;;;;5032173;28;20080;-84
2023/06/25 10:13:56;;;;;;;5.70;5.13;;;30.50;64.20;;;;;;5032675;28;20473;-84
2023/06/25 10:16:23;;;;;;;4.18;3.75;;;30.60;63.20;;;;;;5033518;28;20037;-83
2023/06/25 10:18:54;;;;;;;5.47;4.88;;;30.60;62.70;;;;;;5033460;28;20030;-81
2023/06/25 10:21:22;;;;;;;8.63;5.18;;;30.80;63.90;;;;;;5033843;28;20025;-83
2023/06/25 10:23:59;;;;;;;7.10;4.28;;;30.80;62.90;;;;;;5033436;28;20044;-83
2023/06/25 10:26:31;;;;;;;5.13;4.00;;;30.80;64.30;;;;;;5031993;28;20037;-82
2023/06/25 10:29:08;;;;;;;5.03;4.20;;;30.90;63.50;;;;;;5032308;28;20034;-83
2023/06/25 10:31:38;;;;;;;5.05;4.10;;;31.00;63.20;;;;;;5033903;28;20041;-82
2023/06/25 10:34:05;;;;;;;5.97;3.80;;;31.10;63.40;;;;;;5033405;28;20100;-82
2023/06/25 10:36:31;;;;;;;4.28;3.85;;;31.10;63.00;;;;;;5032491;28;20132;-83
2023/06/25 10:38:58;;;;;;;5.13;3.70;;;31.20;63.70;;;;;;5033592;28;20448;-82
2023/06/25 10:41:31;;;;;;;3.80;3.42;;;31.20;62.20;;;;;;5032047;28;20026;-81
2023/06/25 10:43:58;;;;;;;4.28;3.38;;;31.30;61.00;;;;;;5033147;28;20046;-82
2023/06/25 10:46:31;;;;;;;3.70;3.20;;;31.30;59.10;;;;;;5033150;28;20392;-81
2023/06/25 10:48:59;;;;;;;5.00;3.50;;;31.40;59.00;;;;;;5033408;28;20032;-81
2023/06/25 10:51:25;;;;;;;4.00;3.60;;;31.40;58.30;;;;;;5032865;28;20029;-83
2023/06/25 10:53:55;;;;;;;3.95;3.55;;;31.50;58.20;;;;;;5016892;28;20025;-82
2023/06/25 10:56:21;;;;;;;4.47;3.35;;;31.50;58.60;;;;;;5036821;28;20037;-83
2023/06/25 10:58:54;;;;;;;4.22;3.58;;;31.60;60.00;;;;;;5036750;28;20025;-82
2023/06/25 11:01:19;;;;;;;4.05;3.53;;;31.60;59.80;;;;;;5036819;28;20022;-81
2023/06/25 11:03:45;;;;;;;4.18;3.50;;;31.60;59.60;;;;;;5036509;28;20393;-82
2023/06/25 11:06:11;;;;;;;3.90;3.60;;;31.60;57.80;;;;;;5035878;28;20038;-82
2023/06/25 11:08:36;;;;;;;6.03;3.90;;;31.70;58.00;;;;;;5037030;28;20026;-82
2023/06/25 11:11:03;;;;;;;3.85;3.47;;;31.70;58.00;;;;;;5035938;28;20422;-82
2023/06/25 11:13:32;;;;;;;4.35;3.28;;;31.70;58.00;;;;;;5036475;28;20026;-83
2023/06/25 11:15:57;;;;;;;3.97;3.50;;;31.80;58.20;;;;;;5036516;28;20171;-82
2023/06/25 11:18:23;;;;;;;4.45;2.90;;;31.80;58.40;;;;;;5035018;28;20064;-83
2023/06/25 11:20:49;;;;;;;3.70;2.90;;;31.80;56.70;;;;;;5036516;28;20057;-84
2023/06/25 11:23:18;;;;;;;5.10;3.47;;;31.80;55.40;;;;;;5035885;28;20037;-83
2023/06/25 11:25:44;;;;;;;4.05;3.33;;;31.80;55.50;;;;;;5035413;28;20041;-85
2023/06/25 11:28:14;;;;;;;6.43;3.75;;;31.70;55.10;;;;;;5036096;28;20029;-85
2023/06/25 11:30:40;;;;;;;3.92;3.10;;;31.80;55.30;;;;;;5035709;28;20025;-85
2023/06/25 11:33:07;;;;;;;3.00;2.72;;;31.80;56.30;;;;;;5035767;28;20057;-85
2023/06/25 11:35:33;;;;;;;7.05;3.95;;;31.90;57.00;;;;;;5034450;28;20128;-85
2023/06/25 11:37:59;;;;;;;3.63;3.33;;;31.90;55.40;;;;;;5035775;28;20065;-85
2023/06/25 11:40:29;;;;;;;3.45;3.13;;;32.00;55.50;;;;;;5018151;28;20458;-85
2023/06/25 11:42:55;;;;;;;3.30;3.00;;;32.00;56.70;;;;;;5035345;28;20366;-85
2023/06/25 11:45:22;;;;;;;4.05;2.97;;;32.00;55.80;;;;;;5036246;28;20061;-82
2023/06/25 11:47:53;;;;;;;4.20;3.20;;;32.10;55.10;;;;;;5035728;28;20467;-85
2023/06/25 11:50:22;;;;;;;4.28;3.10;;;32.10;55.00;;;;;;5035011;28;20033;-85
2023/06/25 11:52:48;;;;;;;3.50;3.08;;;32.10;54.80;;;;;;5035786;28;20072;-85
2023/06/25 11:55:14;;;;;;;4.10;3.28;;;32.20;54.90;;;;;;5034902;28;20072;-86
2023/06/25 11:57:40;;;;;;;4.55;3.05;;;32.20;55.50;;;;;;5035921;28;20480;-87
2023/06/25 12:00:07;;;;;;;3.60;3.10;;;32.20;55.20;;;;;;5035868;28;20022;-86
2023/06/25 12:02:33;;;;;;;3.63;3.33;;;32.20;55.20;;;;;;5035581;28;20025;-86
2023/06/25 12:04:58;;;;;;;3.75;3.10;;;32.20;55.00;;;;;;5035267;28;20040;-86
2023/06/25 12:07:24;;;;;;;5.45;2.95;;;32.20;54.10;;;;;;5034350;28;20096;-85
2023/06/25 12:09:50;;;;;;;3.92;2.80;;;32.30;53.50;;;;;;5035247;28;20144;-85
2023/06/25 12:12:16;;;;;;;4.63;3.03;;;32.30;53.00;;;;;;5035116;28;20065;-84
2023/06/25 12:14:42;;;;;;;3.75;3.20;;;32.30;53.10;;;;;;5018058;28;20045;-85
2023/06/25 12:17:07;;;;;;;4.28;3.00;;;32.30;53.50;;;;;;5035030;28;20095;-85
2023/06/25 12:19:33;;;;;;;3.03;2.65;;;32.20;53.90;;;;;;5035088;28;20481;-85
2023/06/25 12:21:59;;;;;;;4.47;2.80;;;32.30;54.70;;;;;;5033787;28;20470;-85
2023/06/25 12:24:24;;;;;;;4.68;3.30;;;32.30;54.20;;;;;;5035127;28;20381;-85
2023/06/25 12:26:50;;;;;;;3.30;3.00;;;32.40;54.10;;;;;;5033988;28;20042;-85
2023/06/25 12:29:16;;;;;;;4.45;3.00;;;32.40;52.70;;;;;;5034239;28;20107;-85
2023/06/25 12:31:41;;;;;;;4.45;3.17;;;32.50;53.30;;;;;;5033573;28;20026;-85
2023/06/25 12:34:07;;;;;;;4.05;3.00;;;32.50;53.90;;;;;;5034956;28;20064;-86
2023/06/25 12:36:33;;;;;;;4.13;2.95;;;32.50;53.50;;;;;;5034411;28;20524;-84
2023/06/25 12:39:00;;;;;;;3.53;3.22;;;32.50;53.70;;;;;;5035030;28;20036;-85
2023/06/25 12:41:26;;;;;;;4.35;3.47;;;32.50;54.00;;;;;;5033808;28;20036;-85